Terminal Aerodrome Forecast
Issued by NWS

Home | Current Version | Previous Version | Text Only | Print | Product List | Glossary On
Versions: 1 2 3 4 5 6 7 8 9 10 11 12 13 14 15 16 17 18
000
FTUS46 KSGX 011100
TAFCRQ
TAF
KCRQ 011135Z 0112/0212 VRB03KT P6SM OVC010
     FM011530 VRB03KT P6SM SCT013 SCT200
     FM012000 24009KT P6SM FEW013 SCT200
     FM020100 VRB05KT P6SM SCT013 SCT200
     FM020500 VRB05KT P6SM BKN007=

USA.gov is the U.S. government's official web portal to all federal, state and local government web resources and services.